sensor_id;sensor_type;location;lat;lon;timestamp;P1;durP1;ratioP1;P2;durP2;ratioP2
14883;SDS011;7534;50.762;7.000;2022-12-16T00:00:06;40.93;;;16.87;;
14883;SDS011;7534;50.762;7.000;2022-12-16T00:02:37;45.70;;;16.43;;
14883;SDS011;7534;50.762;7.000;2022-12-16T00:05:04;41.53;;;17.43;;
14883;SDS011;7534;50.762;7.000;2022-12-16T00:07:30;43.50;;;17.93;;
14883;SDS011;7534;50.762;7.000;2022-12-16T00:09:57;43.10;;;16.73;;
14883;SDS011;7534;50.762;7.000;2022-12-16T00:12:25;44.17;;;17.53;;
14883;SDS011;7534;50.762;7.000;2022-12-16T00:14:50;37.00;;;16.30;;
14883;SDS011;7534;50.762;7.000;2022-12-16T00:17:16;42.50;;;16.73;;
14883;SDS011;7534;50.762;7.000;2022-12-16T00:19:45;43.97;;;17.27;;
14883;SDS011;7534;50.762;7.000;2022-12-16T00:22:11;41.67;;;17.40;;
14883;SDS011;7534;50.762;7.000;2022-12-16T00:27:07;41.53;;;17.33;;
14883;SDS011;7534;50.762;7.000;2022-12-16T00:29:34;42.00;;;17.13;;
14883;SDS011;7534;50.762;7.000;2022-12-16T00:32:12;38.37;;;17.20;;
14883;SDS011;7534;50.762;7.000;2022-12-16T00:34:43;42.50;;;15.57;;
14883;SDS011;7534;50.762;7.000;2022-12-16T00:37:11;39.33;;;15.23;;
14883;SDS011;7534;50.762;7.000;2022-12-16T00:39:40;38.27;;;16.10;;
14883;SDS011;7534;50.762;7.000;2022-12-16T00:42:06;37.70;;;15.80;;
14883;SDS011;7534;50.762;7.000;2022-12-16T00:44:32;35.80;;;13.87;;
14883;SDS011;7534;50.762;7.000;2022-12-16T00:46:59;40.57;;;16.17;;
14883;SDS011;7534;50.762;7.000;2022-12-16T00:52:44;34.77;;;15.10;;
14883;SDS011;7534;50.762;7.000;2022-12-16T00:55:17;35.47;;;15.13;;
14883;SDS011;7534;50.762;7.000;2022-12-16T01:00:29;42.83;;;16.40;;
14883;SDS011;7534;50.762;7.000;2022-12-16T01:02:58;39.00;;;15.90;;
14883;SDS011;7534;50.762;7.000;2022-12-16T01:05:24;39.20;;;17.90;;
14883;SDS011;7534;50.762;7.000;2022-12-16T01:07:54;40.83;;;16.20;;
14883;SDS011;7534;50.762;7.000;2022-12-16T01:10:21;45.47;;;17.23;;
14883;SDS011;7534;50.762;7.000;2022-12-16T01:12:49;45.80;;;16.90;;
14883;SDS011;7534;50.762;7.000;2022-12-16T01:15:21;47.00;;;17.87;;
14883;SDS011;7534;50.762;7.000;2022-12-16T01:17:55;53.03;;;17.10;;
14883;SDS011;7534;50.762;7.000;2022-12-16T01:20:27;43.57;;;15.83;;
14883;SDS011;7534;50.762;7.000;2022-12-16T01:22:53;52.83;;;17.97;;
14883;SDS011;7534;50.762;7.000;2022-12-16T01:25:18;47.40;;;17.17;;
14883;SDS011;7534;50.762;7.000;2022-12-16T01:27:45;43.23;;;16.93;;
14883;SDS011;7534;50.762;7.000;2022-12-16T01:30:12;44.00;;;16.00;;
14883;SDS011;7534;50.762;7.000;2022-12-16T01:32:38;50.07;;;18.17;;
14883;SDS011;7534;50.762;7.000;2022-12-16T01:35:04;50.77;;;18.07;;
14883;SDS011;7534;50.762;7.000;2022-12-16T01:37:31;47.50;;;17.00;;
14883;SDS011;7534;50.762;7.000;2022-12-16T01:39:58;47.90;;;16.43;;
14883;SDS011;7534;50.762;7.000;2022-12-16T01:42:27;52.60;;;16.90;;
14883;SDS011;7534;50.762;7.000;2022-12-16T01:44:55;44.33;;;17.13;;
14883;SDS011;7534;50.762;7.000;2022-12-16T01:47:41;42.13;;;15.67;;
14883;SDS011;7534;50.762;7.000;2022-12-16T01:50:12;40.93;;;15.80;;
14883;SDS011;7534;50.762;7.000;2022-12-16T01:52:51;38.80;;;15.03;;
14883;SDS011;7534;50.762;7.000;2022-12-16T01:55:33;34.10;;;15.10;;
14883;SDS011;7534;50.762;7.000;2022-12-16T01:58:06;34.00;;;14.00;;
14883;SDS011;7534;50.762;7.000;2022-12-16T02:00:39;32.70;;;14.13;;
14883;SDS011;7534;50.762;7.000;2022-12-16T02:03:06;30.87;;;14.30;;
14883;SDS011;7534;50.762;7.000;2022-12-16T02:05:34;33.60;;;14.53;;
14883;SDS011;7534;50.762;7.000;2022-12-16T02:08:09;35.47;;;15.47;;
14883;SDS011;7534;50.762;7.000;2022-12-16T02:13:49;34.30;;;15.40;;
14883;SDS011;7534;50.762;7.000;2022-12-16T02:17:07;28.93;;;12.90;;
14883;SDS011;7534;50.762;7.000;2022-12-16T02:34:37;30.60;;;13.23;;
14883;SDS011;7534;50.762;7.000;2022-12-16T02:37:38;34.40;;;13.47;;
14883;SDS011;7534;50.762;7.000;2022-12-16T02:40:20;34.90;;;13.23;;
14883;SDS011;7534;50.762;7.000;2022-12-16T02:43:01;33.60;;;13.07;;
14883;SDS011;7534;50.762;7.000;2022-12-16T02:45:36;30.67;;;13.57;;
14883;SDS011;7534;50.762;7.000;2022-12-16T02:48:04;30.07;;;13.13;;
14883;SDS011;7534;50.762;7.000;2022-12-16T02:53:25;32.63;;;13.40;;
14883;SDS011;7534;50.762;7.000;2022-12-16T02:56:14;27.67;;;13.73;;
14883;SDS011;7534;50.762;7.000;2022-12-16T02:58:58;30.23;;;13.80;;
14883;SDS011;7534;50.762;7.000;2022-12-16T03:02:27;30.17;;;13.17;;
14883;SDS011;7534;50.762;7.000;2022-12-16T03:05:01;28.17;;;12.77;;
14883;SDS011;7534;50.762;7.000;2022-12-16T03:07:37;27.77;;;13.23;;
14883;SDS011;7534;50.762;7.000;2022-12-16T03:10:07;30.47;;;13.03;;
14883;SDS011;7534;50.762;7.000;2022-12-16T03:12:42;34.03;;;13.80;;
14883;SDS011;7534;50.762;7.000;2022-12-16T03:15:10;29.33;;;13.20;;
14883;SDS011;7534;50.762;7.000;2022-12-16T03:17:42;30.17;;;12.93;;
14883;SDS011;7534;50.762;7.000;2022-12-16T03:20:16;28.17;;;12.80;;
14883;SDS011;7534;50.762;7.000;2022-12-16T03:22:50;31.10;;;13.43;;
14883;SDS011;7534;50.762;7.000;2022-12-16T03:25:20;29.33;;;13.13;;
14883;SDS011;7534;50.762;7.000;2022-12-16T03:27:52;31.43;;;12.37;;
14883;SDS011;7534;50.762;7.000;2022-12-16T03:30:38;28.27;;;12.63;;
14883;SDS011;7534;50.762;7.000;2022-12-16T03:33:18;27.13;;;11.87;;
14883;SDS011;7534;50.762;7.000;2022-12-16T03:35:56;29.87;;;13.57;;
14883;SDS011;7534;50.762;7.000;2022-12-16T03:38:32;28.03;;;12.07;;
14883;SDS011;7534;50.762;7.000;2022-12-16T03:41:00;28.00;;;12.40;;
14883;SDS011;7534;50.762;7.000;2022-12-16T03:43:29;29.37;;;12.03;;
14883;SDS011;7534;50.762;7.000;2022-12-16T03:45:56;29.50;;;13.93;;
14883;SDS011;7534;50.762;7.000;2022-12-16T03:48:29;31.07;;;12.27;;
14883;SDS011;7534;50.762;7.000;2022-12-16T03:51:02;30.73;;;12.97;;
14883;SDS011;7534;50.762;7.000;2022-12-16T03:53:28;29.10;;;13.40;;
14883;SDS011;7534;50.762;7.000;2022-12-16T03:55:55;29.23;;;13.27;;
14883;SDS011;7534;50.762;7.000;2022-12-16T03:58:21;26.60;;;12.07;;
14883;SDS011;7534;50.762;7.000;2022-12-16T04:00:46;30.97;;;12.90;;
14883;SDS011;7534;50.762;7.000;2022-12-16T04:03:12;29.40;;;12.97;;
14883;SDS011;7534;50.762;7.000;2022-12-16T04:05:38;30.80;;;12.10;;
14883;SDS011;7534;50.762;7.000;2022-12-16T04:08:04;27.77;;;11.67;;
14883;SDS011;7534;50.762;7.000;2022-12-16T04:10:30;27.53;;;12.40;;
14883;SDS011;7534;50.762;7.000;2022-12-16T04:13:14;27.70;;;12.27;;
14883;SDS011;7534;50.762;7.000;2022-12-16T04:15:58;26.40;;;12.77;;
14883;SDS011;7534;50.762;7.000;2022-12-16T04:18:43;29.37;;;11.90;;
14883;SDS011;7534;50.762;7.000;2022-12-16T04:21:29;26.83;;;11.43;;
14883;SDS011;7534;50.762;7.000;2022-12-16T04:24:17;26.37;;;11.87;;
14883;SDS011;7534;50.762;7.000;2022-12-16T04:26:48;29.00;;;12.13;;
14883;SDS011;7534;50.762;7.000;2022-12-16T04:29:32;23.73;;;11.07;;
14883;SDS011;7534;50.762;7.000;2022-12-16T04:31:58;28.37;;;12.87;;
14883;SDS011;7534;50.762;7.000;2022-12-16T04:34:25;33.23;;;13.03;;
14883;SDS011;7534;50.762;7.000;2022-12-16T04:36:51;29.43;;;12.23;;
14883;SDS011;7534;50.762;7.000;2022-12-16T04:39:38;30.67;;;13.90;;
14883;SDS011;7534;50.762;7.000;2022-12-16T04:42:22;30.90;;;12.77;;
14883;SDS011;7534;50.762;7.000;2022-12-16T04:45:07;31.60;;;11.97;;
14883;SDS011;7534;50.762;7.000;2022-12-16T04:47:53;29.13;;;12.20;;
14883;SDS011;7534;50.762;7.000;2022-12-16T04:50:43;29.13;;;12.53;;
14883;SDS011;7534;50.762;7.000;2022-12-16T04:53:28;27.70;;;11.80;;
14883;SDS011;7534;50.762;7.000;2022-12-16T04:56:13;25.17;;;11.67;;
14883;SDS011;7534;50.762;7.000;2022-12-16T04:58:57;27.10;;;12.60;;
14883;SDS011;7534;50.762;7.000;2022-12-16T05:01:42;29.80;;;12.50;;
14883;SDS011;7534;50.762;7.000;2022-12-16T05:04:26;25.07;;;12.10;;
14883;SDS011;7534;50.762;7.000;2022-12-16T05:07:12;27.33;;;11.63;;
14883;SDS011;7534;50.762;7.000;2022-12-16T05:09:57;26.40;;;11.57;;
14883;SDS011;7534;50.762;7.000;2022-12-16T05:12:43;26.57;;;11.60;;
14883;SDS011;7534;50.762;7.000;2022-12-16T05:15:27;24.53;;;12.10;;
14883;SDS011;7534;50.762;7.000;2022-12-16T05:18:13;26.80;;;12.00;;
14883;SDS011;7534;50.762;7.000;2022-12-16T05:21:00;24.90;;;11.23;;
14883;SDS011;7534;50.762;7.000;2022-12-16T05:23:51;24.53;;;11.87;;
14883;SDS011;7534;50.762;7.000;2022-12-16T05:26:46;23.90;;;11.87;;
14883;SDS011;7534;50.762;7.000;2022-12-16T05:29:31;22.63;;;10.83;;
14883;SDS011;7534;50.762;7.000;2022-12-16T05:32:17;23.23;;;11.07;;
14883;SDS011;7534;50.762;7.000;2022-12-16T05:35:06;25.97;;;11.60;;
14883;SDS011;7534;50.762;7.000;2022-12-16T05:37:51;26.53;;;11.90;;
14883;SDS011;7534;50.762;7.000;2022-12-16T05:40:36;27.13;;;10.93;;
14883;SDS011;7534;50.762;7.000;2022-12-16T05:43:22;23.83;;;11.20;;
14883;SDS011;7534;50.762;7.000;2022-12-16T05:46:08;25.67;;;11.70;;
14883;SDS011;7534;50.762;7.000;2022-12-16T05:48:52;24.10;;;11.60;;
14883;SDS011;7534;50.762;7.000;2022-12-16T05:51:39;24.87;;;11.43;;
14883;SDS011;7534;50.762;7.000;2022-12-16T05:54:25;28.87;;;11.33;;
14883;SDS011;7534;50.762;7.000;2022-12-16T05:57:12;28.67;;;11.07;;
14883;SDS011;7534;50.762;7.000;2022-12-16T05:59:57;25.07;;;10.57;;
14883;SDS011;7534;50.762;7.000;2022-12-16T06:02:41;26.10;;;11.00;;
14883;SDS011;7534;50.762;7.000;2022-12-16T06:05:25;25.40;;;10.90;;
14883;SDS011;7534;50.762;7.000;2022-12-16T06:08:09;25.30;;;10.37;;
14883;SDS011;7534;50.762;7.000;2022-12-16T06:10:53;21.70;;;11.30;;
14883;SDS011;7534;50.762;7.000;2022-12-16T06:13:39;23.17;;;10.00;;
14883;SDS011;7534;50.762;7.000;2022-12-16T06:16:30;26.03;;;10.30;;
14883;SDS011;7534;50.762;7.000;2022-12-16T06:19:14;25.63;;;11.20;;
14883;SDS011;7534;50.762;7.000;2022-12-16T06:21:58;22.97;;;10.37;;
14883;SDS011;7534;50.762;7.000;2022-12-16T06:24:42;26.37;;;11.23;;
14883;SDS011;7534;50.762;7.000;2022-12-16T06:27:26;27.40;;;12.10;;
14883;SDS011;7534;50.762;7.000;2022-12-16T06:30:10;24.83;;;11.47;;
14883;SDS011;7534;50.762;7.000;2022-12-16T06:32:54;25.47;;;10.83;;
14883;SDS011;7534;50.762;7.000;2022-12-16T06:35:39;24.60;;;10.57;;
14883;SDS011;7534;50.762;7.000;2022-12-16T06:38:23;24.83;;;11.33;;
14883;SDS011;7534;50.762;7.000;2022-12-16T06:41:07;21.77;;;10.53;;
14883;SDS011;7534;50.762;7.000;2022-12-16T06:43:51;23.27;;;11.50;;
14883;SDS011;7534;50.762;7.000;2022-12-16T06:46:35;25.47;;;11.00;;
14883;SDS011;7534;50.762;7.000;2022-12-16T06:49:19;19.53;;;9.13;;
14883;SDS011;7534;50.762;7.000;2022-12-16T06:52:03;24.63;;;10.73;;
14883;SDS011;7534;50.762;7.000;2022-12-16T06:54:47;23.57;;;10.87;;
14883;SDS011;7534;50.762;7.000;2022-12-16T06:57:31;22.57;;;10.67;;
14883;SDS011;7534;50.762;7.000;2022-12-16T07:00:15;23.53;;;10.73;;
14883;SDS011;7534;50.762;7.000;2022-12-16T07:03:00;23.90;;;11.47;;
14883;SDS011;7534;50.762;7.000;2022-12-16T07:05:44;27.27;;;12.97;;
14883;SDS011;7534;50.762;7.000;2022-12-16T07:08:28;25.33;;;10.87;;
14883;SDS011;7534;50.762;7.000;2022-12-16T07:11:13;23.33;;;11.87;;
14883;SDS011;7534;50.762;7.000;2022-12-16T07:13:58;21.43;;;11.27;;
14883;SDS011;7534;50.762;7.000;2022-12-16T07:16:43;21.93;;;10.63;;
14883;SDS011;7534;50.762;7.000;2022-12-16T07:19:27;19.00;;;10.90;;
14883;SDS011;7534;50.762;7.000;2022-12-16T07:22:11;23.97;;;10.60;;
14883;SDS011;7534;50.762;7.000;2022-12-16T07:24:55;20.37;;;10.57;;
14883;SDS011;7534;50.762;7.000;2022-12-16T07:27:43;21.50;;;10.27;;
14883;SDS011;7534;50.762;7.000;2022-12-16T07:30:29;20.83;;;9.93;;
14883;SDS011;7534;50.762;7.000;2022-12-16T07:33:14;20.87;;;10.93;;
14883;SDS011;7534;50.762;7.000;2022-12-16T07:35:58;20.57;;;10.10;;
14883;SDS011;7534;50.762;7.000;2022-12-16T07:38:42;23.60;;;10.50;;
14883;SDS011;7534;50.762;7.000;2022-12-16T07:41:26;28.10;;;13.07;;
14883;SDS011;7534;50.762;7.000;2022-12-16T07:44:10;26.30;;;11.73;;
14883;SDS011;7534;50.762;7.000;2022-12-16T07:47:01;25.27;;;10.03;;
14883;SDS011;7534;50.762;7.000;2022-12-16T07:49:46;20.80;;;10.03;;
14883;SDS011;7534;50.762;7.000;2022-12-16T07:52:32;22.10;;;10.77;;
14883;SDS011;7534;50.762;7.000;2022-12-16T07:55:16;23.13;;;10.47;;
14883;SDS011;7534;50.762;7.000;2022-12-16T07:58:00;25.77;;;10.63;;
14883;SDS011;7534;50.762;7.000;2022-12-16T08:00:44;26.93;;;11.67;;
14883;SDS011;7534;50.762;7.000;2022-12-16T08:03:29;23.67;;;11.97;;
14883;SDS011;7534;50.762;7.000;2022-12-16T08:06:13;27.33;;;12.87;;
14883;SDS011;7534;50.762;7.000;2022-12-16T08:08:57;21.97;;;11.77;;
14883;SDS011;7534;50.762;7.000;2022-12-16T08:11:42;26.13;;;12.73;;
14883;SDS011;7534;50.762;7.000;2022-12-16T08:14:26;27.07;;;12.93;;
14883;SDS011;7534;50.762;7.000;2022-12-16T08:17:10;22.03;;;10.93;;
14883;SDS011;7534;50.762;7.000;2022-12-16T08:19:54;24.37;;;10.70;;
14883;SDS011;7534;50.762;7.000;2022-12-16T08:22:39;24.57;;;11.80;;
14883;SDS011;7534;50.762;7.000;2022-12-16T08:25:41;25.90;;;12.93;;
14883;SDS011;7534;50.762;7.000;2022-12-16T08:28:25;24.77;;;12.70;;
14883;SDS011;7534;50.762;7.000;2022-12-16T08:31:10;28.57;;;13.80;;
14883;SDS011;7534;50.762;7.000;2022-12-16T08:33:54;27.17;;;15.10;;
14883;SDS011;7534;50.762;7.000;2022-12-16T08:36:38;29.03;;;15.87;;
14883;SDS011;7534;50.762;7.000;2022-12-16T08:39:22;26.93;;;15.70;;
14883;SDS011;7534;50.762;7.000;2022-12-16T08:42:06;25.70;;;14.83;;
14883;SDS011;7534;50.762;7.000;2022-12-16T08:44:50;23.77;;;14.47;;
14883;SDS011;7534;50.762;7.000;2022-12-16T08:47:34;22.20;;;12.30;;
14883;SDS011;7534;50.762;7.000;2022-12-16T08:50:18;24.53;;;12.03;;
14883;SDS011;7534;50.762;7.000;2022-12-16T08:53:02;19.00;;;11.50;;
14883;SDS011;7534;50.762;7.000;2022-12-16T08:55:48;18.87;;;10.40;;
14883;SDS011;7534;50.762;7.000;2022-12-16T08:58:34;21.50;;;11.07;;
14883;SDS011;7534;50.762;7.000;2022-12-16T09:01:18;21.10;;;11.63;;
14883;SDS011;7534;50.762;7.000;2022-12-16T09:04:02;20.43;;;11.60;;
14883;SDS011;7534;50.762;7.000;2022-12-16T09:06:47;17.17;;;10.60;;
14883;SDS011;7534;50.762;7.000;2022-12-16T09:09:32;19.07;;;10.40;;
14883;SDS011;7534;50.762;7.000;2022-12-16T09:12:16;16.23;;;10.00;;
14883;SDS011;7534;50.762;7.000;2022-12-16T09:15:00;19.93;;;10.07;;
14883;SDS011;7534;50.762;7.000;2022-12-16T09:17:45;15.30;;;9.17;;
14883;SDS011;7534;50.762;7.000;2022-12-16T09:20:36;15.03;;;9.20;;
14883;SDS011;7534;50.762;7.000;2022-12-16T09:23:20;16.93;;;9.47;;
14883;SDS011;7534;50.762;7.000;2022-12-16T09:26:04;13.60;;;8.83;;
14883;SDS011;7534;50.762;7.000;2022-12-16T09:28:48;14.93;;;9.83;;
14883;SDS011;7534;50.762;7.000;2022-12-16T09:31:32;16.07;;;9.63;;
14883;SDS011;7534;50.762;7.000;2022-12-16T09:34:16;15.23;;;9.00;;
14883;SDS011;7534;50.762;7.000;2022-12-16T09:37:01;19.07;;;10.00;;
14883;SDS011;7534;50.762;7.000;2022-12-16T09:39:45;16.77;;;9.57;;
14883;SDS011;7534;50.762;7.000;2022-12-16T09:42:41;17.40;;;9.90;;
14883;SDS011;7534;50.762;7.000;2022-12-16T09:45:43;19.23;;;9.93;;
14883;SDS011;7534;50.762;7.000;2022-12-16T09:48:47;21.33;;;9.50;;
14883;SDS011;7534;50.762;7.000;2022-12-16T09:51:56;16.23;;;9.33;;
14883;SDS011;7534;50.762;7.000;2022-12-16T09:54:45;21.67;;;10.70;;
14883;SDS011;7534;50.762;7.000;2022-12-16T09:57:32;16.33;;;10.50;;
14883;SDS011;7534;50.762;7.000;2022-12-16T10:00:23;16.90;;;9.93;;
14883;SDS011;7534;50.762;7.000;2022-12-16T10:06:36;18.90;;;10.40;;
14883;SDS011;7534;50.762;7.000;2022-12-16T10:09:31;20.97;;;10.83;;
14883;SDS011;7534;50.762;7.000;2022-12-16T10:13:02;18.07;;;10.20;;
14883;SDS011;7534;50.762;7.000;2022-12-16T10:16:21;25.80;;;17.42;;
14883;SDS011;7534;50.762;7.000;2022-12-16T10:23:10;19.40;;;11.27;;
14883;SDS011;7534;50.762;7.000;2022-12-16T10:29:39;17.50;;;10.00;;
14883;SDS011;7534;50.762;7.000;2022-12-16T10:32:41;17.67;;;10.57;;
14883;SDS011;7534;50.762;7.000;2022-12-16T10:35:34;17.97;;;10.17;;
14883;SDS011;7534;50.762;7.000;2022-12-16T10:38:43;21.23;;;11.13;;
14883;SDS011;7534;50.762;7.000;2022-12-16T10:41:33;19.30;;;11.23;;
14883;SDS011;7534;50.762;7.000;2022-12-16T10:47:40;18.00;;;10.40;;
14883;SDS011;7534;50.762;7.000;2022-12-16T10:50:26;20.97;;;11.53;;
14883;SDS011;7534;50.762;7.000;2022-12-16T10:53:17;24.27;;;13.17;;
14883;SDS011;7534;50.762;7.000;2022-12-16T10:59:02;23.47;;;15.43;;
14883;SDS011;7534;50.762;7.000;2022-12-16T11:01:57;20.53;;;12.77;;
14883;SDS011;7534;50.762;7.000;2022-12-16T11:08:23;20.97;;;11.97;;
14883;SDS011;7534;50.762;7.000;2022-12-16T11:11:12;22.43;;;12.87;;
14883;SDS011;7534;50.762;7.000;2022-12-16T11:14:11;20.33;;;12.63;;
14883;SDS011;7534;50.762;7.000;2022-12-16T11:23:20;23.73;;;12.70;;
14883;SDS011;7534;50.762;7.000;2022-12-16T11:26:11;17.43;;;11.87;;
14883;SDS011;7534;50.762;7.000;2022-12-16T11:29:12;21.07;;;12.00;;
14883;SDS011;7534;50.762;7.000;2022-12-16T11:32:00;19.93;;;11.97;;
14883;SDS011;7534;50.762;7.000;2022-12-16T11:35:03;23.67;;;12.30;;
14883;SDS011;7534;50.762;7.000;2022-12-16T11:37:55;24.10;;;12.83;;
14883;SDS011;7534;50.762;7.000;2022-12-16T11:40:42;24.73;;;13.40;;
14883;SDS011;7534;50.762;7.000;2022-12-16T11:43:27;23.63;;;13.23;;
14883;SDS011;7534;50.762;7.000;2022-12-16T11:46:20;26.50;;;14.00;;
14883;SDS011;7534;50.762;7.000;2022-12-16T11:49:18;24.93;;;13.13;;
14883;SDS011;7534;50.762;7.000;2022-12-16T11:52:16;22.33;;;12.63;;
14883;SDS011;7534;50.762;7.000;2022-12-16T12:01:39;22.43;;;12.37;;
14883;SDS011;7534;50.762;7.000;2022-12-16T12:04:40;24.10;;;15.57;;
14883;SDS011;7534;50.762;7.000;2022-12-16T12:10:51;21.43;;;13.10;;
14883;SDS011;7534;50.762;7.000;2022-12-16T12:30:19;24.30;;;15.30;;
14883;SDS011;7534;50.762;7.000;2022-12-16T12:39:44;23.20;;;15.33;;
14883;SDS011;7534;50.762;7.000;2022-12-16T12:42:46;27.53;;;14.07;;
14883;SDS011;7534;50.762;7.000;2022-12-16T12:52:33;26.37;;;15.50;;
14883;SDS011;7534;50.762;7.000;2022-12-16T12:59:14;25.73;;;15.60;;
14883;SDS011;7534;50.762;7.000;2022-12-16T13:02:10;22.60;;;14.20;;
14883;SDS011;7534;50.762;7.000;2022-12-16T13:05:05;22.37;;;14.37;;
14883;SDS011;7534;50.762;7.000;2022-12-16T13:11:14;23.00;;;14.53;;
14883;SDS011;7534;50.762;7.000;2022-12-16T13:13:59;23.43;;;13.77;;
14883;SDS011;7534;50.762;7.000;2022-12-16T13:16:55;24.80;;;14.30;;
14883;SDS011;7534;50.762;7.000;2022-12-16T13:19:41;25.13;;;14.53;;
14883;SDS011;7534;50.762;7.000;2022-12-16T13:22:35;23.30;;;14.40;;
14883;SDS011;7534;50.762;7.000;2022-12-16T13:28:35;22.37;;;13.67;;
14883;SDS011;7534;50.762;7.000;2022-12-16T13:31:25;24.30;;;14.57;;
14883;SDS011;7534;50.762;7.000;2022-12-16T13:36:57;23.20;;;14.40;;
14883;SDS011;7534;50.762;7.000;2022-12-16T13:39:54;24.13;;;14.23;;
14883;SDS011;7534;50.762;7.000;2022-12-16T13:46:38;23.27;;;14.60;;
14883;SDS011;7534;50.762;7.000;2022-12-16T13:52:26;28.03;;;14.93;;
14883;SDS011;7534;50.762;7.000;2022-12-16T13:55:32;23.93;;;14.83;;
14883;SDS011;7534;50.762;7.000;2022-12-16T14:04:32;26.60;;;14.93;;
14883;SDS011;7534;50.762;7.000;2022-12-16T14:07:21;26.43;;;15.13;;
14883;SDS011;7534;50.762;7.000;2022-12-16T14:13:52;29.37;;;15.53;;
14883;SDS011;7534;50.762;7.000;2022-12-16T14:17:00;27.93;;;15.10;;
14883;SDS011;7534;50.762;7.000;2022-12-16T14:23:24;38.28;;;27.08;;
14883;SDS011;7534;50.762;7.000;2022-12-16T14:26:24;33.07;;;19.40;;
14883;SDS011;7534;50.762;7.000;2022-12-16T14:29:20;31.27;;;18.13;;
14883;SDS011;7534;50.762;7.000;2022-12-16T14:32:17;30.53;;;16.70;;
14883;SDS011;7534;50.762;7.000;2022-12-16T14:35:26;37.03;;;18.97;;
14883;SDS011;7534;50.762;7.000;2022-12-16T14:38:13;36.93;;;18.77;;
14883;SDS011;7534;50.762;7.000;2022-12-16T14:41:20;31.37;;;16.33;;
14883;SDS011;7534;50.762;7.000;2022-12-16T14:44:18;46.37;;;24.00;;
14883;SDS011;7534;50.762;7.000;2022-12-16T14:47:14;31.77;;;16.50;;
14883;SDS011;7534;50.762;7.000;2022-12-16T14:50:02;35.53;;;16.63;;
14883;SDS011;7534;50.762;7.000;2022-12-16T14:53:20;32.10;;;15.70;;
14883;SDS011;7534;50.762;7.000;2022-12-16T14:56:21;34.17;;;17.30;;
14883;SDS011;7534;50.762;7.000;2022-12-16T14:59:16;30.13;;;16.37;;
14883;SDS011;7534;50.762;7.000;2022-12-16T15:02:49;33.63;;;14.97;;
14883;SDS011;7534;50.762;7.000;2022-12-16T15:05:13;40.43;;;20.00;;
14883;SDS011;7534;50.762;7.000;2022-12-16T15:07:59;35.77;;;16.47;;
14883;SDS011;7534;50.762;7.000;2022-12-16T15:10:46;33.67;;;15.67;;
14883;SDS011;7534;50.762;7.000;2022-12-16T15:13:31;29.93;;;14.40;;
14883;SDS011;7534;50.762;7.000;2022-12-16T15:16:19;32.53;;;15.17;;
14883;SDS011;7534;50.762;7.000;2022-12-16T15:19:16;29.47;;;13.70;;
14883;SDS011;7534;50.762;7.000;2022-12-16T15:22:04;29.30;;;12.63;;
14883;SDS011;7534;50.762;7.000;2022-12-16T15:24:49;31.60;;;13.57;;
14883;SDS011;7534;50.762;7.000;2022-12-16T15:27:36;30.93;;;14.60;;
14883;SDS011;7534;50.762;7.000;2022-12-16T15:30:38;30.17;;;13.93;;
14883;SDS011;7534;50.762;7.000;2022-12-16T15:36:24;29.27;;;13.43;;
14883;SDS011;7534;50.762;7.000;2022-12-16T15:42:28;28.53;;;13.33;;
14883;SDS011;7534;50.762;7.000;2022-12-16T15:45:17;29.80;;;13.80;;
14883;SDS011;7534;50.762;7.000;2022-12-16T15:48:17;29.83;;;14.47;;
14883;SDS011;7534;50.762;7.000;2022-12-16T15:51:28;32.63;;;14.40;;
14883;SDS011;7534;50.762;7.000;2022-12-16T15:54:24;33.83;;;13.70;;
14883;SDS011;7534;50.762;7.000;2022-12-16T16:00:18;26.67;;;11.93;;
14883;SDS011;7534;50.762;7.000;2022-12-16T16:03:04;27.70;;;11.87;;
14883;SDS011;7534;50.762;7.000;2022-12-16T16:06:00;26.10;;;10.13;;
14883;SDS011;7534;50.762;7.000;2022-12-16T16:08:48;25.37;;;10.77;;
14883;SDS011;7534;50.762;7.000;2022-12-16T16:11:34;27.33;;;11.67;;
14883;SDS011;7534;50.762;7.000;2022-12-16T16:14:18;28.20;;;11.80;;
14883;SDS011;7534;50.762;7.000;2022-12-16T16:17:02;24.37;;;11.60;;
14883;SDS011;7534;50.762;7.000;2022-12-16T16:20:05;27.27;;;11.47;;
14883;SDS011;7534;50.762;7.000;2022-12-16T16:22:53;28.47;;;11.00;;
14883;SDS011;7534;50.762;7.000;2022-12-16T16:25:37;27.77;;;12.17;;
14883;SDS011;7534;50.762;7.000;2022-12-16T16:28:21;33.30;;;12.60;;
14883;SDS011;7534;50.762;7.000;2022-12-16T16:31:07;31.63;;;11.47;;
14883;SDS011;7534;50.762;7.000;2022-12-16T16:33:52;30.53;;;12.33;;
14883;SDS011;7534;50.762;7.000;2022-12-16T16:36:36;34.30;;;12.13;;
14883;SDS011;7534;50.762;7.000;2022-12-16T16:39:21;131.40;;;52.17;;
14883;SDS011;7534;50.762;7.000;2022-12-16T16:42:07;66.23;;;31.90;;
14883;SDS011;7534;50.762;7.000;2022-12-16T16:44:52;33.63;;;13.73;;
14883;SDS011;7534;50.762;7.000;2022-12-16T16:47:37;36.37;;;17.43;;
14883;SDS011;7534;50.762;7.000;2022-12-16T16:50:22;34.37;;;13.80;;
14883;SDS011;7534;50.762;7.000;2022-12-16T16:53:13;63.63;;;33.93;;
14883;SDS011;7534;50.762;7.000;2022-12-16T16:55:59;33.90;;;15.33;;
14883;SDS011;7534;50.762;7.000;2022-12-16T16:58:45;39.63;;;14.47;;
14883;SDS011;7534;50.762;7.000;2022-12-16T17:01:29;40.03;;;15.07;;
14883;SDS011;7534;50.762;7.000;2022-12-16T17:04:13;28.53;;;12.50;;
14883;SDS011;7534;50.762;7.000;2022-12-16T17:06:57;38.50;;;13.93;;
14883;SDS011;7534;50.762;7.000;2022-12-16T17:09:41;38.13;;;12.50;;
14883;SDS011;7534;50.762;7.000;2022-12-16T17:12:26;40.93;;;15.60;;
14883;SDS011;7534;50.762;7.000;2022-12-16T17:15:15;45.57;;;18.60;;
14883;SDS011;7534;50.762;7.000;2022-12-16T17:18:08;40.43;;;15.53;;
14883;SDS011;7534;50.762;7.000;2022-12-16T17:20:53;45.97;;;15.77;;
14883;SDS011;7534;50.762;7.000;2022-12-16T17:23:37;47.00;;;17.53;;
14883;SDS011;7534;50.762;7.000;2022-12-16T17:26:23;60.43;;;21.97;;
14883;SDS011;7534;50.762;7.000;2022-12-16T17:29:13;50.57;;;17.70;;
14883;SDS011;7534;50.762;7.000;2022-12-16T17:32:03;45.73;;;16.67;;
14883;SDS011;7534;50.762;7.000;2022-12-16T17:34:48;45.93;;;17.00;;
14883;SDS011;7534;50.762;7.000;2022-12-16T17:37:32;48.43;;;16.53;;
14883;SDS011;7534;50.762;7.000;2022-12-16T17:40:17;53.43;;;18.60;;
14883;SDS011;7534;50.762;7.000;2022-12-16T17:43:01;56.67;;;21.13;;
14883;SDS011;7534;50.762;7.000;2022-12-16T17:46:03;55.27;;;21.10;;
14883;SDS011;7534;50.762;7.000;2022-12-16T17:48:50;65.67;;;26.50;;
14883;SDS011;7534;50.762;7.000;2022-12-16T17:51:41;49.00;;;17.90;;
14883;SDS011;7534;50.762;7.000;2022-12-16T17:54:26;52.80;;;18.63;;
14883;SDS011;7534;50.762;7.000;2022-12-16T17:57:11;47.30;;;16.17;;
14883;SDS011;7534;50.762;7.000;2022-12-16T17:59:56;48.93;;;16.93;;
14883;SDS011;7534;50.762;7.000;2022-12-16T18:02:40;53.43;;;16.53;;
14883;SDS011;7534;50.762;7.000;2022-12-16T18:05:25;52.30;;;18.87;;
14883;SDS011;7534;50.762;7.000;2022-12-16T18:08:10;46.83;;;17.47;;
14883;SDS011;7534;50.762;7.000;2022-12-16T18:10:56;48.67;;;17.10;;
14883;SDS011;7534;50.762;7.000;2022-12-16T18:13:41;40.23;;;15.43;;
14883;SDS011;7534;50.762;7.000;2022-12-16T18:16:26;45.77;;;16.83;;
14883;SDS011;7534;50.762;7.000;2022-12-16T18:19:11;39.90;;;16.13;;
14883;SDS011;7534;50.762;7.000;2022-12-16T18:21:57;41.00;;;16.40;;
14883;SDS011;7534;50.762;7.000;2022-12-16T18:24:41;39.50;;;15.10;;
14883;SDS011;7534;50.762;7.000;2022-12-16T18:27:27;36.37;;;15.13;;
14883;SDS011;7534;50.762;7.000;2022-12-16T18:30:13;43.60;;;16.73;;
14883;SDS011;7534;50.762;7.000;2022-12-16T18:32:58;42.10;;;16.23;;
14883;SDS011;7534;50.762;7.000;2022-12-16T18:35:42;46.27;;;16.87;;